createdAt,value
2024-02-13T00:01:19.307Z,9.70
2024-02-13T00:03:47.557Z,10.50
2024-02-13T00:06:15.428Z,9.00
2024-02-13T00:08:45.767Z,8.90
2024-02-13T00:11:15.273Z,9.80
2024-02-13T00:13:47.735Z,9.00
2024-02-13T00:16:19.210Z,9.00
2024-02-13T00:18:50.895Z,9.10
2024-02-13T00:21:18.810Z,8.90
2024-02-13T00:23:46.471Z,8.50
2024-02-13T00:26:14.426Z,9.70
2024-02-13T00:28:41.920Z,9.30
2024-02-13T00:31:10.018Z,9.00
2024-02-13T00:33:37.540Z,7.60
2024-02-13T00:36:05.174Z,9.20
2024-02-13T00:38:32.538Z,8.80
2024-02-13T00:41:00.000Z,9.00
2024-02-13T00:43:29.924Z,9.50
2024-02-13T00:45:58.476Z,8.20
2024-02-13T00:48:28.068Z,7.40
2024-02-13T00:50:56.488Z,8.20
2024-02-13T00:53:24.100Z,8.40
2024-02-13T00:55:52.765Z,7.90
2024-02-13T00:58:20.275Z,8.00
2024-02-13T01:00:47.708Z,9.20
2024-02-13T01:03:15.219Z,7.40
2024-02-13T01:05:42.926Z,8.60
2024-02-13T01:08:11.964Z,8.70
2024-02-13T01:10:39.506Z,9.10
2024-02-13T01:13:06.934Z,8.30
2024-02-13T01:15:34.461Z,8.00
2024-02-13T01:18:02.095Z,6.50
2024-02-13T01:20:29.710Z,6.80
2024-02-13T01:22:57.288Z,7.40
2024-02-13T01:25:24.745Z,7.80
2024-02-13T01:27:52.175Z,7.70
2024-02-13T01:30:20.113Z,7.90
2024-02-13T01:32:48.589Z,9.00
2024-02-13T01:35:17.617Z,7.60
2024-02-13T01:37:45.071Z,7.50
2024-02-13T01:40:12.788Z,7.60
2024-02-13T01:42:40.127Z,6.90
2024-02-13T01:45:08.311Z,7.50
2024-02-13T01:47:37.229Z,8.10
2024-02-13T01:50:07.683Z,7.90
2024-02-13T01:52:35.168Z,7.60
2024-02-13T01:55:03.940Z,6.50
2024-02-13T01:57:32.958Z,6.80
2024-02-13T02:00:00.771Z,6.90
2024-02-13T02:02:28.214Z,7.00
2024-02-13T02:04:55.653Z,6.30
2024-02-13T02:07:24.552Z,7.00
2024-02-13T02:09:52.266Z,7.00
2024-02-13T02:12:19.679Z,6.10
2024-02-13T02:14:47.152Z,7.30
2024-02-13T02:17:14.966Z,7.70
2024-02-13T02:19:42.481Z,7.20
2024-02-13T02:22:10.410Z,7.20
2024-02-13T02:24:37.860Z,7.40
2024-02-13T02:27:05.337Z,7.60
2024-02-13T02:29:34.039Z,6.80
2024-02-13T02:32:01.601Z,6.70
2024-02-13T02:34:29.981Z,6.40
2024-02-13T02:36:57.478Z,6.90
2024-02-13T02:39:25.246Z,7.10
2024-02-13T02:41:53.241Z,7.10
2024-02-13T02:44:21.199Z,7.90
2024-02-13T02:46:49.095Z,6.90
2024-02-13T02:49:18.356Z,6.20
2024-02-13T02:51:47.549Z,7.30
2024-02-13T02:54:15.120Z,7.30
2024-02-13T02:56:42.738Z,7.30
2024-02-13T02:59:10.329Z,7.10
2024-02-13T03:01:38.203Z,6.70
2024-02-13T03:04:10.367Z,7.00
2024-02-13T03:06:40.016Z,6.20
2024-02-13T03:09:08.405Z,6.00
2024-02-13T03:11:36.127Z,6.30
2024-02-13T03:14:05.201Z,6.20
2024-02-13T03:16:36.200Z,6.70
2024-02-13T03:19:04.483Z,7.20
2024-02-13T03:21:32.181Z,7.60
2024-02-13T03:24:00.840Z,7.30
2024-02-13T03:26:28.479Z,6.40
2024-02-13T03:28:57.267Z,7.70
2024-02-13T03:31:24.975Z,8.10
2024-02-13T03:33:52.635Z,8.10
2024-02-13T03:36:21.040Z,8.80
2024-02-13T03:38:54.425Z,8.30
2024-02-13T03:43:50.781Z,7.20
2024-02-13T03:46:18.327Z,8.70
2024-02-13T03:48:46.146Z,8.70
2024-02-13T03:51:14.545Z,9.60
2024-02-13T03:53:42.249Z,8.30
2024-02-13T03:56:10.940Z,8.20
2024-02-13T04:01:18.579Z,7.70
2024-02-13T04:03:46.130Z,8.00
2024-02-13T04:06:13.772Z,7.30
2024-02-13T04:08:46.010Z,7.00
2024-02-13T04:11:14.319Z,6.10
2024-02-13T04:13:41.808Z,7.00
2024-02-13T04:16:09.544Z,6.80
2024-02-13T04:18:37.235Z,6.90
2024-02-13T04:21:05.512Z,6.70
2024-02-13T04:23:34.137Z,7.20
2024-02-13T04:26:01.749Z,8.30
2024-02-13T04:28:29.120Z,8.70
2024-02-13T04:30:56.583Z,9.00
2024-02-13T16:19:30.953Z,33.50
2024-02-13T16:21:59.326Z,36.00
2024-02-13T16:24:26.978Z,27.60
2024-02-13T16:27:38.580Z,21.00
2024-02-13T16:30:09.474Z,18.30
2024-02-13T16:32:40.697Z,17.10
2024-02-13T16:35:10.671Z,17.30
2024-02-13T16:37:41.865Z,17.70
2024-02-13T16:40:12.612Z,17.30
2024-02-13T16:42:40.232Z,16.60
2024-02-13T16:45:09.060Z,17.00
2024-02-13T16:47:39.134Z,18.00
2024-02-13T16:50:17.011Z,17.10
2024-02-13T16:52:44.917Z,17.50
2024-02-13T16:55:13.614Z,18.10
2024-02-13T16:57:45.719Z,19.40
2024-02-13T17:00:14.385Z,18.80
2024-02-13T17:02:42.466Z,20.20
2024-02-13T17:05:13.788Z,16.50
2024-02-13T17:07:42.142Z,17.30
2024-02-13T17:10:10.568Z,18.30
2024-02-13T17:12:39.614Z,18.30
2024-02-13T17:15:14.536Z,19.50
2024-02-13T17:17:43.204Z,23.20
2024-02-13T17:20:15.082Z,21.80
2024-02-13T17:22:42.959Z,21.30
2024-02-13T17:25:13.612Z,20.60
2024-02-13T17:27:42.800Z,19.90
2024-02-13T17:30:14.415Z,20.90
2024-02-13T17:32:48.172Z,19.70
2024-02-13T17:35:16.633Z,19.90
2024-02-13T17:37:44.407Z,21.00
2024-02-13T17:40:14.550Z,21.50
2024-02-13T17:42:42.543Z,22.60
2024-02-13T17:45:11.408Z,23.20
2024-02-13T17:47:39.338Z,21.90
2024-02-13T17:50:09.215Z,27.60
2024-02-13T17:52:37.682Z,27.50
2024-02-13T17:55:09.386Z,24.10
2024-02-13T17:57:39.922Z,33.00
2024-02-13T18:00:08.985Z,36.90
2024-02-13T18:02:43.200Z,37.10
2024-02-13T18:05:10.873Z,34.30
2024-02-13T18:07:38.705Z,28.90
2024-02-13T18:10:09.230Z,31.40
2024-02-13T18:13:02.815Z,28.30
2024-02-13T18:15:30.457Z,29.40
2024-02-13T18:17:58.765Z,30.70
2024-02-13T18:20:28.343Z,36.70
2024-02-13T18:23:28.384Z,36.50
2024-02-13T18:25:56.553Z,33.70
2024-02-13T18:28:24.206Z,40.90
2024-02-13T18:30:51.715Z,40.80
2024-02-13T18:33:19.503Z,46.30
2024-02-13T18:35:48.594Z,50.60
2024-02-13T18:38:16.591Z,44.00
2024-02-13T18:40:44.231Z,45.40
2024-02-13T18:43:11.886Z,45.70
2024-02-13T18:45:39.806Z,53.10
2024-02-13T18:48:08.472Z,88.10
2024-02-13T18:50:36.300Z,59.90
2024-02-13T18:53:04.807Z,53.90
2024-02-13T18:55:33.951Z,49.00
2024-02-13T18:58:01.472Z,58.30
2024-02-13T19:00:29.844Z,56.30
2024-02-13T19:02:57.532Z,60.30
2024-02-13T19:05:25.473Z,64.80
2024-02-13T19:07:53.279Z,54.30
2024-02-13T19:10:21.255Z,57.20
2024-02-13T19:12:48.920Z,49.50
2024-02-13T19:15:17.699Z,52.90
2024-02-13T19:17:45.645Z,44.60
2024-02-13T19:20:15.891Z,42.60
2024-02-13T19:22:43.486Z,36.10
2024-02-13T19:25:11.471Z,31.70
2024-02-13T19:27:40.265Z,30.10
2024-02-13T19:30:12.532Z,26.50
2024-02-13T19:32:40.205Z,27.80
2024-02-13T19:35:09.983Z,25.10
2024-02-13T19:37:38.263Z,24.70
2024-02-13T19:40:07.632Z,29.20
2024-02-13T19:42:36.682Z,29.40
2024-02-13T19:45:05.924Z,37.30
2024-02-13T19:47:34.704Z,51.30
2024-02-13T19:50:02.431Z,65.40
2024-02-13T19:52:31.005Z,47.60
2024-02-13T19:54:58.644Z,41.60
2024-02-13T19:57:28.903Z,35.20
2024-02-13T19:59:56.600Z,26.90
2024-02-13T20:02:25.952Z,26.90
2024-02-13T20:04:57.973Z,23.00
2024-02-13T20:07:26.008Z,23.50
2024-02-13T20:09:55.800Z,23.90
2024-02-13T20:12:25.600Z,22.60
2024-02-13T20:14:53.194Z,23.90
2024-02-13T20:17:20.872Z,22.10
2024-02-13T20:19:48.709Z,24.70
2024-02-13T20:22:16.467Z,27.90
2024-02-13T20:24:44.064Z,31.50
2024-02-13T20:27:11.652Z,29.70
2024-02-13T20:29:39.223Z,33.00
2024-02-13T20:32:07.326Z,28.70
2024-02-13T20:34:35.629Z,28.50
2024-02-13T20:37:05.022Z,26.50
2024-02-13T20:39:32.847Z,25.70
2024-02-13T20:42:03.593Z,26.60
2024-02-13T20:44:31.340Z,25.10
2024-02-13T20:46:58.978Z,27.10
2024-02-13T20:49:27.565Z,23.70
2024-02-13T20:51:55.299Z,22.20
2024-02-13T20:54:22.957Z,20.50
2024-02-13T20:56:51.787Z,22.70
2024-02-13T20:59:19.503Z,20.70
2024-02-13T21:01:49.231Z,21.60
2024-02-13T21:04:17.270Z,23.20
2024-02-13T21:06:46.008Z,23.40
2024-02-13T21:09:13.873Z,21.80
2024-02-13T21:11:42.301Z,22.80
2024-02-13T21:14:10.555Z,23.00
2024-02-13T21:16:38.280Z,21.00
2024-02-13T21:19:09.050Z,21.90
2024-02-13T21:21:55.482Z,23.20
2024-02-13T21:24:23.081Z,22.40
2024-02-13T21:26:50.823Z,22.40
2024-02-13T21:36:10.124Z,23.60
2024-02-13T21:38:39.275Z,22.50
2024-02-13T21:41:07.086Z,22.50
2024-02-13T21:43:34.968Z,22.90
2024-02-13T21:46:02.459Z,22.20
2024-02-13T21:48:30.325Z,19.50
2024-02-13T21:50:59.705Z,23.40
2024-02-13T21:53:27.496Z,22.10
2024-02-13T21:55:55.226Z,21.90
2024-02-13T21:58:23.274Z,21.10
2024-02-13T22:00:52.285Z,19.60
2024-02-13T22:03:19.808Z,21.00
2024-02-13T22:05:47.429Z,19.00
2024-02-13T22:08:15.517Z,19.50
2024-02-13T22:10:43.112Z,18.20
2024-02-13T22:13:10.601Z,20.90
2024-02-13T22:15:38.074Z,20.90
2024-02-13T22:18:06.189Z,21.40
2024-02-13T22:20:38.204Z,20.80
2024-02-13T22:23:08.004Z,25.00
2024-02-13T22:25:36.463Z,21.50
2024-02-13T22:28:06.725Z,24.90
2024-02-13T22:30:34.354Z,21.60
2024-02-13T22:33:04.312Z,21.80
2024-02-13T22:35:31.848Z,22.20
2024-02-13T22:37:59.421Z,26.80
2024-02-13T22:40:27.303Z,24.40
2024-02-13T22:42:54.786Z,22.60
2024-02-13T22:45:22.286Z,20.30
2024-02-13T22:48:00.227Z,20.10
2024-02-13T22:50:28.512Z,19.40
2024-02-13T22:53:00.039Z,19.80
2024-02-13T22:55:28.087Z,18.60
2024-02-13T22:57:55.694Z,18.20
2024-02-13T23:00:42.233Z,17.30
2024-02-13T23:03:10.115Z,16.90
2024-02-13T23:05:38.879Z,18.30
2024-02-13T23:08:09.141Z,19.10
2024-02-13T23:10:38.375Z,18.40
2024-02-13T23:13:06.244Z,17.30
2024-02-13T23:15:33.731Z,20.00
2024-02-13T23:18:02.607Z,18.60
2024-02-13T23:20:30.987Z,19.20
2024-02-13T23:23:00.020Z,19.20
2024-02-13T23:25:27.525Z,17.80
2024-02-13T23:27:55.514Z,17.40
2024-02-13T23:30:23.197Z,17.00
2024-02-13T23:32:50.723Z,16.40
2024-02-13T23:35:21.166Z,16.80
2024-02-13T23:37:48.714Z,15.70
2024-02-13T23:40:18.019Z,15.10
2024-02-13T23:42:48.871Z,13.70
2024-02-13T23:45:16.438Z,14.40
2024-02-13T23:47:44.278Z,14.30
2024-02-13T23:50:14.821Z,13.80
2024-02-13T23:52:42.552Z,11.40
2024-02-13T23:55:10.885Z,13.00
2024-02-13T23:57:41.400Z,11.70
